Time;durP1;ratioP1;P1;durP2;ratioP2;P2;SDS_P1;SDS_P2;PMS_P1;PMS_P2;Temp;Humidity;BMP_temperature;BMP_pressure;BME280_temperature;BME280_humidity;BME280_pressure;Samples;Min_cycle;Max_cycle;Signal;HPM_P1;HPM_P2
2021/06/25 00:02:14;;;;;;;;;;;;;;;14.43;100.00;100451.59;5113740;28;19969;-80
2021/06/25 00:04:42;;;;;;;;;;;;;;;14.44;100.00;100458.03;5095668;28;19927;-80
2021/06/25 00:07:10;;;;;;;;;;;;;;;14.41;100.00;100456.06;5114566;28;19927;-80
2021/06/25 00:09:37;;;;;;;;;;;;;;;14.39;100.00;100461.28;5117654;28;19923;-80
2021/06/25 00:12:06;;;;;;;;;;;;;;;14.31;100.00;100861.88;5117657;28;19963;-80
2021/06/25 00:14:34;;;;;;;;;;;;;;;14.28;100.00;100900.00;5082135;28;19927;-80
2021/06/25 00:17:02;;;;;;;;;;;;;;;14.25;100.00;100900.81;5099442;28;19927;-80
2021/06/25 00:19:30;;;;;;;;;;;;;;;14.22;100.00;100952.22;5117496;28;19976;-80
2021/06/25 00:21:57;;;;;;;;;;;;;;;14.27;100.00;100953.84;5117261;28;19924;-80
2021/06/25 00:24:25;;;;;;;;;;;;;;;14.25;100.00;100959.88;5117211;28;20392;-80
2021/06/25 00:26:52;;;;;;;;;;;;;;;14.21;100.00;100961.03;5117291;28;19931;-80
2021/06/25 00:29:20;;;;;;;;;;;;;;;14.18;100.00;100965.47;5116868;28;19928;-79
2021/06/25 00:31:48;;;;;;;;;;;;;;;14.16;100.00;100972.72;5099472;28;19924;-80
2021/06/25 00:34:16;;;;;;;;;;;;;;;14.16;100.00;100984.75;5099191;28;19924;-80
2021/06/25 00:36:43;;;;;;;;;;;;;;;14.15;100.00;100983.16;5117189;28;19941;-80
2021/06/25 00:39:10;;;;;;;;;;;;;;;14.16;100.00;100987.56;5098962;28;19969;-79
2021/06/25 00:41:38;;;;;;;;;;;;;;;14.14;100.00;100994.78;5099101;28;19924;-80
2021/06/25 00:44:05;;;;;;;;;;;;;;;14.13;100.00;100998.81;5116913;28;19924;-80
2021/06/25 00:46:32;;;;;;;;;;;;;;;14.11;100.00;101001.22;5117063;28;20258;-80
2021/06/25 00:49:00;;;;;;;;;;;;;;;14.10;100.00;101006.03;5098957;28;20007;-80
2021/06/25 00:51:27;;;;;;;;;;;;;;;14.14;100.00;101022.91;5116662;28;19946;-80
2021/06/25 00:53:54;;;;;;;;;;;;;;;14.10;100.00;101030.56;5116955;28;20394;-80
2021/06/25 00:56:21;;;;;;;;;;;;;;;14.11;100.00;101047.00;5116714;28;20272;-80
2021/06/25 00:58:51;;;;;;;;;;;;;;;14.11;100.00;101057.44;5116580;28;19927;-80
2021/06/25 01:01:19;;;;;;;;;;;;;;;14.11;100.00;101068.69;5116725;28;19924;-80
2021/06/25 01:03:46;;;;;;;;;;;;;;;14.06;100.00;101075.50;5116494;28;19932;-80
2021/06/25 01:06:14;;;;;;;;;;;;;;;14.10;100.00;101081.94;5098449;28;19924;-80
2021/06/25 01:08:41;;;;;;;;;;;;;;;14.04;100.00;101077.13;5116467;28;19931;-80
2021/06/25 01:11:09;;;;;;;;;;;;;;;14.12;100.00;101089.97;5098177;28;19924;-80
2021/06/25 01:13:38;;;;;;;;;;;;;;;14.08;100.00;101089.16;5116197;28;20425;-80
2021/06/25 01:16:06;;;;;;;;;;;;;;;14.04;100.00;101089.16;5098152;28;19924;-80
2021/06/25 01:18:33;;;;;;;;;;;;;;;14.07;100.00;101085.53;5115388;28;19934;-79
2021/06/25 01:21:01;;;;;;;;;;;;;;;14.08;100.00;101083.53;5098189;28;19931;-80
2021/06/25 01:23:28;;;;;;;;;;;;;;;14.01;100.00;101086.34;5116177;28;19928;-79
2021/06/25 01:25:55;;;;;;;;;;;;;;;14.03;100.00;101078.31;5116018;28;19924;-80
2021/06/25 01:28:23;;;;;;;;;;;;;;;14.05;100.00;101087.97;5115930;28;20380;-80
2021/06/25 01:30:50;;;;;;;;;;;;;;;14.13;100.00;101094.41;5115639;28;19924;-79
2021/06/25 01:33:18;;;;;;;;;;;;;;;14.00;100.00;101087.53;5116065;28;20293;-80
2021/06/25 01:35:57;;;;;;;;;;;;;;;14.03;100.00;101101.59;5115866;28;20256;-80
2021/06/25 01:38:24;;;;;;;;;;;;;;;14.14;100.00;101101.63;5097874;28;20290;-80
2021/06/25 01:40:53;;;;;;;;;;;;;;;14.15;100.00;101109.66;5089456;28;19928;-79
2021/06/25 01:43:22;;;;;;;;;;;;;;;14.16;100.00;101104.84;5115040;28;20035;-79
2021/06/25 01:45:50;;;;;;;;;;;;;;;14.09;100.00;101110.44;5115324;28;19924;-79
2021/06/25 01:48:18;;;;;;;;;;;;;;;14.02;100.00;101110.44;5116042;28;19955;-80
2021/06/25 01:50:45;;;;;;;;;;;;;;;14.02;100.00;101110.44;5115027;28;19924;-80
2021/06/25 01:53:14;;;;;;;;;;;;;;;14.04;100.00;101119.28;5115826;28;19924;-80
2021/06/25 01:55:42;;;;;;;;;;;;;;;14.03;100.00;101114.84;5080629;28;20359;-80
2021/06/25 01:58:13;;;;;;;;;;;;;;;13.99;100.00;101122.47;5097312;28;19947;-80
2021/06/25 02:00:45;;;;;;;;;;;;;;;14.04;100.00;101127.72;5115590;28;19924;-80
2021/06/25 02:03:14;;;;;;;;;;;;;;;14.04;100.00;101136.16;5097476;28;19931;-79
2021/06/25 02:05:41;;;;;;;;;;;;;;;13.98;100.00;101140.56;5115413;28;19931;-79
2021/06/25 02:08:08;;;;;;;;;;;;;;;14.00;100.00;101140.94;5115230;28;20385;-80
2021/06/25 02:10:36;;;;;;;;;;;;;;;13.97;100.00;101142.56;5115261;28;19931;-80
2021/06/25 02:13:03;;;;;;;;;;;;;;;13.96;100.00;101157.81;5115294;28;20305;-80
2021/06/25 02:15:30;;;;;;;;;;;;;;;13.92;100.00;101161.78;5115336;28;19931;-80
2021/06/25 02:17:57;;;;;;;;;;;;;;;13.91;100.00;101171.44;5115122;28;20377;-80
2021/06/25 02:20:24;;;;;;;;;;;;;;;13.84;100.00;101177.81;5115266;28;19930;-79
2021/06/25 02:22:51;;;;;;;;;;;;;;;13.75;100.00;101179.41;5114923;28;20306;-79
2021/06/25 02:25:19;;;;;;;;;;;;;;;13.66;100.00;101162.88;5096844;28;20696;-79
2021/06/25 02:27:46;;;;;;;;;;;;;;;13.59;100.00;101167.66;5114226;28;19927;-79
2021/06/25 02:30:16;;;;;;;;;;;;;;;13.58;100.00;101171.69;5114814;28;19927;-80
2021/06/25 02:32:44;;;;;;;;;;;;;;;13.55;100.00;101178.91;5114695;28;19927;-79
2021/06/25 02:35:12;;;;;;;;;;;;;;;13.54;100.00;101176.50;5115024;28;19932;-80
2021/06/25 02:37:41;;;;;;;;;;;;;;;13.50;100.00;101196.13;5096852;28;19977;-79
2021/06/25 02:40:08;;;;;;;;;;;;;;;13.45;100.00;101198.50;5114615;28;19946;-79
2021/06/25 02:42:35;;;;;;;;;;;;;;;13.44;100.00;101202.50;5114734;28;19931;-79
2021/06/25 02:45:03;;;;;;;;;;;;;;;13.36;100.00;101215.69;5096608;28;19924;-79
2021/06/25 02:47:32;;;;;;;;;;;;;;;13.33;100.00;101219.28;5096628;28;19931;-79
2021/06/25 02:49:59;;;;;;;;;;;;;;;13.29;100.00;101234.47;5114213;28;19924;-79
2021/06/25 02:52:27;;;;;;;;;;;;;;;13.23;100.00;101236.03;5114633;28;20236;-79
2021/06/25 02:54:54;;;;;;;;;;;;;;;13.18;100.00;101234.41;5095802;28;19927;-79
2021/06/25 02:57:21;;;;;;;;;;;;;;;13.17;100.00;101248.81;5113130;28;20294;-79
2021/06/25 02:59:48;;;;;;;;;;;;;;;13.13;100.00;101248.00;5096146;28;20464;-80
2021/06/25 03:02:15;;;;;;;;;;;;;;;13.01;100.00;101245.50;5096377;28;19930;-79
2021/06/25 03:04:43;;;;;;;;;;;;;;;12.95;100.00;101244.22;5096433;28;19977;-80
2021/06/25 03:07:10;;;;;;;;;;;;;;;12.79;100.00;101238.84;5114043;28;20445;-80
2021/06/25 03:13:42;;;;;;;;;;;;;;;12.65;100.00;101245.13;5109256;27;20390;-79
2021/06/25 03:16:10;;;;;;;;;;;;;;;12.59;100.00;101246.69;5114078;28;19924;-79
2021/06/25 03:18:37;;;;;;;;;;;;;;;12.48;100.00;101240.13;5112973;28;19924;-79
2021/06/25 03:21:04;;;;;;;;;;;;;;;12.45;100.00;101254.94;5114220;28;19935;-79
2021/06/25 03:23:31;;;;;;;;;;;;;;;12.38;100.00;101246.44;5095887;28;20692;-80
2021/06/25 03:25:59;;;;;;;;;;;;;;;12.34;100.00;101242.78;5113011;28;19929;-79
2021/06/25 03:28:26;;;;;;;;;;;;;;;12.26;100.00;101246.72;5113738;28;19924;-79
2021/06/25 03:30:53;;;;;;;;;;;;;;;12.20;100.00;101239.84;5095774;28;19931;-79
2021/06/25 03:33:20;;;;;;;;;;;;;;;12.16;100.00;101232.56;5113973;28;19924;-79
2021/06/25 03:35:48;;;;;;;;;;;;;;;12.17;100.00;101240.59;5114006;28;19938;-79
2021/06/25 03:38:15;;;;;;;;;;;;;;;12.10;100.00;101248.91;5113886;28;20027;-79
2021/06/25 03:40:42;;;;;;;;;;;;;;;12.07;100.00;101243.28;5095559;28;20438;-79
2021/06/25 03:43:10;;;;;;;;;;;;;;;12.06;100.00;101244.44;5095506;28;19973;-79
2021/06/25 03:45:37;;;;;;;;;;;;;;;12.05;100.00;101242.84;5113916;28;19927;-79
2021/06/25 03:48:05;;;;;;;;;;;;;;;12.02;100.00;101241.63;5095444;28;19934;-79
2021/06/25 03:50:33;;;;;;;;;;;;;;;12.03;100.00;101248.00;5113783;28;19931;-79
2021/06/25 03:53:00;;;;;;;;;;;;;;;12.04;100.00;101249.66;5113727;28;19923;-79
2021/06/25 03:55:28;;;;;;;;;;;;;;;12.03;100.00;101251.63;5113493;28;20008;-79
2021/06/25 03:57:55;;;;;;;;;;;;;;;12.04;100.00;101261.63;5113665;28;19946;-79
2021/06/25 04:00:22;;;;;;;;;;;;;;;12.07;100.00;101252.47;5114086;28;19963;-79
2021/06/25 04:02:49;;;;;;;;;;;;;;;12.07;100.00;101263.69;5095825;28;19980;-79
2021/06/25 04:05:19;;;;;;;;;;;;;;;12.05;100.00;101266.06;5113513;28;19930;-79
2021/06/25 04:07:46;;;;;;;;;;;;;;;12.01;100.00;101281.22;5113644;28;19946;-79
2021/06/25 04:10:14;;;;;;;;;;;;;;;11.97;100.00;101283.97;5095208;28;19928;-79
2021/06/25 04:12:41;;;;;;;;;;;;;;;11.93;100.00;101294.34;5095792;28;19969;-79
2021/06/25 04:15:09;;;;;;;;;;;;;;;11.91;100.00;101301.47;5095299;28;19923;-80
2021/06/25 04:17:36;;;;;;;;;;;;;;;11.89;100.00;101301.88;5095825;28;19923;-79
2021/06/25 04:20:04;;;;;;;;;;;;;;;11.92;100.00;101306.72;5113385;28;19969;-79
2021/06/25 04:22:32;;;;;;;;;;;;;;;11.86;100.00;101313.81;5113453;28;19924;-80
2021/06/25 04:24:59;;;;;;;;;;;;;;;11.87;100.00;101320.25;5104312;28;19938;-80
2021/06/25 04:27:27;;;;;;;;;;;;;;;11.91;100.00;101327.53;5115377;28;19928;-80
2021/06/25 04:29:54;;;;;;;;;;;;;;;11.91;100.00;101338.72;5102562;28;20553;-80
2021/06/25 04:32:21;;;;;;;;;;;;;;;11.88;100.00;101345.09;5123986;27;19946;-80
2021/06/25 04:34:49;;;;;;;;;;;;;;;11.85;100.00;101343.03;5129186;27;20014;-80
2021/06/25 04:37:16;;;;;;;;;;;;;;;11.84;100.00;101352.63;5107111;28;19931;-91
2021/06/25 04:39:44;;;;;;;;;;;;;;;11.70;100.00;101349.63;5097748;28;19928;-77
2021/06/25 04:42:12;;;;;;;;;;;;;;;11.77;100.00;101354.53;5109468;28;19924;-78
2021/06/25 04:44:39;;;;;;;;;;;;;;;11.81;100.00;101372.19;5090314;28;19972;-77
2021/06/25 04:47:07;;;;;;;;;;;;;;;11.78;100.00;101378.53;5076108;28;20022;-77
2021/06/25 04:49:35;;;;;;;;;;;;;;;11.80;100.00;101374.16;5112013;28;19928;-76
2021/06/25 04:52:02;;;;;;;;;;;;;;;11.77;100.00;101374.91;5112091;28;19924;-77
2021/06/25 04:54:29;;;;;;;;;;;;;;;11.75;100.00;101373.69;5077872;28;20068;-77
2021/06/25 04:56:56;;;;;;;;;;;;;;;11.75;100.00;101380.13;5115845;28;19923;-77
2021/06/25 04:59:23;;;;;;;;;;;;;;;11.75;100.00;101374.50;5114665;28;19931;-76
2021/06/25 05:01:51;;;;;;;;;;;;;;;11.68;100.00;101377.19;5115689;28;19936;-76
2021/06/25 05:04:18;;;;;;;;;;;;;;;11.69;100.00;101375.19;5096331;28;19932;-76
2021/06/25 05:06:47;;;;;;;;;;;;;;;11.65;100.00;101369.53;5115659;28;19925;-76
2021/06/25 05:09:15;;;;;;;;;;;;;;;11.65;100.00;101374.31;5096381;28;19931;-77
2021/06/25 05:11:42;;;;;;;;;;;;;;;11.63;100.00;101383.09;5097321;28;19927;-76
2021/06/25 05:14:10;;;;;;;;;;;;;;;11.65;100.00;101386.34;5097351;28;19924;-77
2021/06/25 05:16:37;;;;;;;;;;;;;;;11.61;100.00;101391.03;5114509;28;19931;-77
2021/06/25 05:19:04;;;;;;;;;;;;;;;11.60;100.00;101389.41;5097398;28;19938;-77
2021/06/25 05:21:31;;;;;;;;;;;;;;;11.52;100.00;101387.69;5114258;28;19954;-76
2021/06/25 05:23:58;;;;;;;;;;;;;;;11.51;100.00;101386.06;5097593;28;19965;-76
2021/06/25 05:26:25;;;;;;;;;;;;;;;11.50;100.00;101384.44;5097842;28;19928;-76
2021/06/25 05:28:53;;;;;;;;;;;;;;;11.52;100.00;101386.88;5115943;28;20018;-77
2021/06/25 05:31:20;;;;;;;;;;;;;;;11.53;100.00;101389.31;5097879;28;20015;-77
2021/06/25 05:33:47;;;;;;;;;;;;;;;11.48;100.00;101378.41;5115762;28;19924;-77
2021/06/25 05:36:14;;;;;;;;;;;;;;;11.43;100.00;101377.91;5115958;28;19959;-77
2021/06/25 05:38:41;;;;;;;;;;;;;;;11.36;100.00;101369.41;5115762;28;19950;-77
2021/06/25 05:41:09;;;;;;;;;;;;;;;11.44;100.00;101376.72;5103045;27;19923;-77
2021/06/25 05:43:36;;;;;;;;;;;;;;;11.47;100.00;101384.38;5134424;27;19962;-77
2021/06/25 05:46:04;;;;;;;;;;;;;;;11.34;100.00;101375.38;5129278;27;19924;-77
2021/06/25 05:48:31;;;;;;;;;;;;;;;11.34;100.00;101369.78;5113370;28;19931;-77
2021/06/25 05:50:59;;;;;;;;;;;;;;;11.37;100.00;101368.22;5111566;28;19928;-77
2021/06/25 05:53:26;;;;;;;;;;;;;;;11.37;100.00;101374.63;5094967;28;19924;-77
2021/06/25 05:55:53;;;;;;;;;;;;;;;11.18;100.00;101357.09;5095584;27;20343;-77
2021/06/25 05:58:20;;;;;;;;;;;;;;;11.22;100.00;101355.97;5115547;27;20035;-77
2021/06/25 06:00:47;;;;;;;;;;;;;;;11.21;100.00;101359.16;5099461;28;19924;-77
2021/06/25 06:03:15;;;;;;;;;;;;;;;11.19;100.00;101355.91;5106617;28;19931;-77
2021/06/25 06:05:42;;;;;;;;;;;;;;;11.14;100.00;101354.22;5102796;28;20398;-77
2021/06/25 06:08:09;;;;;;;;;;;;;;;11.05;100.00;101352.84;5106139;28;19928;-76
2021/06/25 06:10:37;;;;;;;;;;;;;;;11.04;100.00;101356.84;5105958;28;19924;-77
2021/06/25 06:13:04;;;;;;;;;;;;;;;11.01;100.00;101366.78;5094541;27;19963;-76
2021/06/25 06:15:32;;;;;;;;;;;;;;;11.11;100.00;101373.75;5111570;27;19931;-77
2021/06/25 06:18:01;;;;;;;;;;;;;;;11.07;100.00;101376.50;5092058;28;19931;-76
2021/06/25 06:20:28;;;;;;;;;;;;;;;11.10;100.00;101363.75;5092002;28;19924;-76
2021/06/25 06:31:21;;;;;;;;;;;;;;;10.99;100.00;101341.16;5106340;28;19993;-77
2021/06/25 06:36:22;;;;;;;;;;;;;;;11.06;100.00;101330.09;5102168;28;19979;-77
2021/06/25 06:38:51;;;;;;;;;;;;;;;11.15;100.00;101322.25;5101950;28;20005;-77
2021/06/25 06:41:19;;;;;;;;;;;;;;;11.36;100.00;101333.81;5102071;28;19935;-77
2021/06/25 06:43:47;;;;;;;;;;;;;;;11.43;100.00;101333.13;5082124;28;19928;-76
2021/06/25 06:46:14;;;;;;;;;;;;;;;11.43;100.00;101333.94;5103452;28;19981;-75
2021/06/25 06:48:44;;;;;;;;;;;;;;;11.59;100.00;101337.41;5089613;27;20402;-75
2021/06/25 06:51:12;;;;;;;;;;;;;;;11.69;100.00;101347.97;5077860;28;19923;-77
2021/06/25 06:53:45;;;;;;;;;;;;;;;11.84;100.00;101358.25;5078033;28;19927;-76
2021/06/25 06:56:14;;;;;;;;;;;;;;;11.98;100.00;101350.03;5076153;28;19973;-77
2021/06/25 06:58:42;;;;;;;;;;;;;;;12.18;100.00;101365.53;5091832;28;19924;-83
2021/06/25 07:01:09;;;;;;;;;;;;;;;12.28;100.00;101364.84;5095508;28;20005;-81
2021/06/25 07:03:48;;;;;;;;;;;;;;;12.39;100.00;101365.81;5107203;28;19928;-75
2021/06/25 07:06:15;;;;;;;;;;;;;;;12.62;100.00;101379.72;5107870;28;20018;-83
2021/06/25 07:08:42;;;;;;;;;;;;;;;12.68;100.00;101379.00;5086877;28;20264;-78
2021/06/25 07:11:10;;;;;;;;;;;;;;;12.75;100.00;101381.88;5112076;28;19977;-78
2021/06/25 07:13:37;;;;;;;;;;;;;;;12.67;100.00;101371.78;5087472;28;20073;-78
2021/06/25 07:16:05;;;;;;;;;;;;;;;12.50;100.00;101355.56;5090010;27;19928;-79
2021/06/25 07:18:33;;;;;;;;;;;;;;;12.71;100.00;101363.41;5129000;27;19931;-77
2021/06/25 07:21:00;;;;;;;;;;;;;;;12.67;100.00;101354.97;5115385;27;19924;-78
2021/06/25 07:23:27;;;;;;;;;;;;;;;12.64;100.00;101344.50;5126620;27;20279;-78
2021/06/25 07:25:54;;;;;;;;;;;;;;;12.63;100.00;101342.88;5080726;28;20007;-78
2021/06/25 07:28:21;;;;;;;;;;;;;;;12.51;100.00;101329.09;5104078;27;19935;-78
2021/06/25 07:30:49;;;;;;;;;;;;;;;12.67;100.00;101331.69;5103072;27;19930;-80
2021/06/25 07:33:16;;;;;;;;;;;;;;;12.72;100.00;101346.19;5104056;27;19923;-78
2021/06/25 07:35:43;;;;;;;;;;;;;;;12.77;100.00;101342.22;5126429;27;19969;-78
2021/06/25 07:38:10;;;;;;;;;;;;;;;12.84;100.00;101339.50;5118541;27;19927;-78
2021/06/25 07:40:37;;;;;;;;;;;;;;;12.95;100.00;101334.00;5108670;28;19969;-78
2021/06/25 07:43:04;;;;;;;;;;;;;;;12.97;100.00;101326.81;5102729;28;19924;-78
2021/06/25 07:45:35;;;;;;;;;;;;;;;12.84;100.00;101311.47;5118503;27;20057;-79
2021/06/25 07:48:03;;;;;;;;;;;;;;;12.93;100.00;101311.13;5113830;27;20022;-79
2021/06/25 07:50:32;;;;;;;;;;;;;;;12.86;100.00;101309.06;5125763;27;19950;-78
2021/06/25 07:52:59;;;;;;;;;;;;;;;12.69;100.00;101298.47;5112707;27;19923;-78
2021/06/25 07:55:26;;;;;;;;;;;;;;;12.87;100.00;101301.44;5117129;27;19970;-78
2021/06/25 07:57:54;;;;;;;;;;;;;;;12.89;100.00;101304.69;5125921;27;19938;-78
2021/06/25 08:00:21;;;;;;;;;;;;;;;13.23;100.00;101387.66;5128224;27;19928;-78
2021/06/25 08:02:48;;;;;;;;;;;;;;;13.27;100.00;101388.50;5129355;27;20396;-79
2021/06/25 08:05:16;;;;;;;;;;;;;;;13.35;100.00;101395.78;5131164;27;19927;-78
2021/06/25 08:07:43;;;;;;;;;;;;;;;13.40;100.00;101387.03;5111684;27;19931;-78
2021/06/25 08:10:12;;;;;;;;;;;;;;;13.45;100.00;101383.88;5124818;28;19932;-78
2021/06/25 08:12:40;;;;;;;;;;;;;;;13.43;100.00;101381.44;5112364;28;19924;-78
2021/06/25 08:15:07;;;;;;;;;;;;;;;13.35;100.00;101368.53;5096463;28;19927;-77
2021/06/25 08:17:34;;;;;;;;;;;;;;;13.32;100.00;101358.06;5084948;28;20086;-78
2021/06/25 08:20:02;;;;;;;;;;;;;;;13.40;100.00;101344.91;5097820;27;19946;-78
2021/06/25 08:22:30;;;;;;;;;;;;;;;13.43;100.00;101336.50;5120121;28;19923;-78
2021/06/25 08:24:58;;;;;;;;;;;;;;;13.54;100.00;101333.78;5117763;28;19930;-78
2021/06/25 08:27:25;;;;;;;;;;;;;;;13.42;100.00;101312.41;5114916;27;19923;-79
2021/06/25 08:29:54;;;;;;;;;;;;;;;13.45;100.00;101302.41;5127829;27;19965;-78
2021/06/25 08:32:21;;;;;;;;;;;;;;;13.50;100.00;101293.59;5115769;27;19969;-77
2021/06/25 08:34:49;;;;;;;;;;;;;;;13.47;100.00;101272.75;5107947;28;20275;-77
2021/06/25 08:37:16;;;;;;;;;;;;;;;13.42;100.00;101255.47;5096821;27;20503;-77
2021/06/25 08:39:43;;;;;;;;;;;;;;;13.40;100.00;101241.81;5130096;27;19924;-77
2021/06/25 08:42:12;;;;;;;;;;;;;;;13.29;100.00;101223.25;5128769;27;19928;-77
2021/06/25 08:44:40;;;;;;;;;;;;;;;13.40;100.00;101215.72;5130899;27;19930;-78
2021/06/25 08:47:07;;;;;;;;;;;;;;;13.35;100.00;101194.44;5120652;27;19923;-79
2021/06/25 08:49:36;;;;;;;;;;;;;;;13.50;100.00;101195.31;5115495;28;19928;-78
2021/06/25 08:52:04;;;;;;;;;;;;;;;13.56;100.00;101188.94;5114688;28;19924;-80
2021/06/25 08:54:32;;;;;;;;;;;;;;;13.55;100.00;101164.03;5115113;28;20323;-80
2021/06/25 08:57:04;;;;;;;;;;;;;;;13.65;100.00;101158.47;5102119;28;20046;-79
2021/06/25 08:59:32;;;;;;;;;;;;;;;13.73;100.00;101143.28;5113994;28;20339;-80
2021/06/25 09:01:59;;;;;;;;;;;;;;;13.73;100.00;101125.59;5097024;28;19924;-80
2021/06/25 09:04:33;;;;;;;;;;;;;;;13.81;100.00;101116.00;5115094;28;20383;-80
2021/06/25 09:07:00;;;;;;;;;;;;;;;13.76;100.00;101096.72;5116981;28;19924;-80
2021/06/25 09:09:37;;;;;;;;;;;;;;;13.74;100.00;101080.25;5115127;28;20329;-80
2021/06/25 09:12:15;;;;;;;;;;;;;;;13.87;100.00;101069.44;5103259;27;20390;-80
2021/06/25 09:14:55;;;;;;;;;;;;;;;13.98;100.00;101068.25;5096793;27;19934;-79
2021/06/25 09:17:23;;;;;;;;;;;;;;;14.19;100.00;101047.81;5118381;27;20018;-79
2021/06/25 09:19:50;;;;;;;;;;;;;;;14.13;100.00;101032.56;5133465;27;19944;-79
2021/06/25 09:22:17;;;;;;;;;;;;;;;13.99;100.00;100996.00;5113631;27;20378;-80
2021/06/25 09:24:57;;;;;;;;;;;;;;;14.08;100.00;100980.34;5114526;27;19931;-79
2021/06/25 09:27:25;;;;;;;;;;;;;;;14.29;100.00;100968.31;5111548;27;19923;-79
2021/06/25 09:29:53;;;;;;;;;;;;;;;14.48;100.00;100949.00;5134589;27;19999;-79
2021/06/25 09:32:22;;;;;;;;;;;;;;;14.43;100.00;100934.56;5130049;27;19924;-79
2021/06/25 09:34:51;;;;;;;;;;;;;;;14.56;100.00;100916.03;5113789;28;19924;-79
2021/06/25 09:37:19;;;;;;;;;;;;;;;14.68;100.00;100907.13;5105650;27;19924;-78
2021/06/25 09:40:00;;;;;;;;;;;;;;;14.61;100.00;100879.03;5093797;28;20334;-79
2021/06/25 09:42:29;;;;;;;;;;;;;;;14.78;100.00;100858.47;5076451;28;19924;-78
2021/06/25 09:45:00;;;;;;;;;;;;;;;14.67;100.00;100825.94;5102767;28;19957;-79
2021/06/25 09:47:28;;;;;;;;;;;;;;;14.85;100.00;100804.97;5119747;27;20567;-79
2021/06/25 09:50:15;;;;;;;;;;;;;;;15.01;100.00;100785.53;5124423;27;20655;-78
2021/06/25 09:52:50;;;;;;;;;;;;;;;14.97;100.00;100744.56;5113653;27;20251;-78
2021/06/25 09:55:27;;;;;;;;;;;;;;;15.03;100.00;100714.75;5092605;28;20016;-79
2021/06/25 10:03:57;;;;;;;;;;;;;;;15.60;100.00;100637.78;5106148;28;19927;-78
2021/06/25 10:06:27;;;;;;;;;;;;;;;15.63;100.00;100597.50;5106029;28;19924;-78
2021/06/25 10:08:54;;;;;;;;;;;;;;;15.57;100.00;100571.00;5106861;28;19978;-78
2021/06/25 10:11:22;;;;;;;;;;;;;;;15.44;100.00;100521.28;5107773;28;19973;-78
2021/06/25 10:13:51;;;;;;;;;;;;;;;15.54;100.00;100456.34;5095959;28;19928;-78
2021/06/25 10:16:18;;;;;;;;;;;;;;;15.41;100.00;100286.34;5108177;28;19946;-78
2021/06/25 10:18:46;;;;;;;;;;;;;;;15.35;100.00;100247.78;5087330;27;19931;-78
2021/06/25 10:21:15;;;;;;;;;;;;;;;15.50;100.00;100233.06;5114220;27;19970;-78
2021/06/25 10:23:49;;;;;;;;;;;;;;;15.39;100.00;100215.56;5110947;28;20474;-78
2021/06/25 10:26:17;;;;;;;;;;;;;;;15.23;100.00;100176.00;5093074;28;20480;-78
2021/06/25 10:28:45;;;;;;;;;;;;;;;15.46;100.00;100181.66;5095201;28;20027;-78
2021/06/25 10:31:14;;;;;;;;;;;;;;;15.36;100.00;100170.50;5108803;28;19981;-78
2021/06/25 10:33:42;;;;;;;;;;;;;;;15.43;100.00;100165.59;5098107;28;19928;-78
2021/06/25 10:36:14;;;;;;;;;;;;;;;15.46;100.00;100150.66;5113664;27;19958;-76
2021/06/25 10:38:43;;;;;;;;;;;;;;;15.60;100.00;100136.28;5115098;27;19924;-78
2021/06/25 10:41:11;;;;;;;;;;;;;;;15.58;100.00;99986.66;5108412;28;21150;-78
2021/06/25 10:43:40;;;;;;;;;;;;;;;15.53;100.00;99961.78;5107266;28;19924;-78
2021/06/25 10:46:29;;;;;;;;;;;;;;;15.35;100.00;99919.13;5097769;28;19931;-78
2021/06/25 10:48:57;;;;;;;;;;;;;;;15.15;100.00;99898.63;5121291;27;19927;-78
2021/06/25 10:51:31;;;;;;;;;;;;;;;15.07;100.00;99871.84;5108711;28;19931;-78
2021/06/25 10:54:04;;;;;;;;;;;;;;;15.05;100.00;99857.44;5106235;28;19924;-76
2021/06/25 10:56:32;;;;;;;;;;;;;;;15.07;100.00;99809.94;5106649;28;19977;-77
2021/06/25 10:59:19;;;;;;;;;;;;;;;15.01;100.00;99808.84;5102803;28;19935;-78
2021/06/25 11:01:54;;;;;;;;;;;;;;;15.12;100.00;99688.41;5103158;27;19930;-78
2021/06/25 11:04:30;;;;;;;;;;;;;;;14.99;100.00;99658.56;5107443;27;19924;-77
2021/06/25 11:06:58;;;;;;;;;;;;;;;14.88;100.00;99649.59;5099051;28;20048;-77
2021/06/25 11:09:29;;;;;;;;;;;;;;;14.88;100.00;99604.56;5108581;27;20010;-77
2021/06/25 11:12:16;;;;;;;;;;;;;;;14.80;100.00;99591.94;5107741;28;20386;-78
2021/06/25 11:14:43;;;;;;;;;;;;;;;14.78;100.00;99588.75;5114241;27;19927;-76
2021/06/25 11:17:10;;;;;;;;;;;;;;;14.76;100.00;99580.75;5129220;27;19991;-78
2021/06/25 11:19:38;;;;;;;;;;;;;;;14.96;100.00;99575.84;5113946;27;19951;-78
2021/06/25 11:22:24;;;;;;;;;;;;;;;14.82;100.00;99567.75;5087413;27;19938;-77
2021/06/25 11:24:55;;;;;;;;;;;;;;;14.91;100.00;99570.72;5119919;27;20203;-76
2021/06/25 11:27:22;;;;;;;;;;;;;;;14.96;100.00;99567.41;5117210;27;19927;-77
2021/06/25 11:29:50;;;;;;;;;;;;;;;14.89;100.00;99550.69;5123519;27;19923;-77
2021/06/25 11:32:28;;;;;;;;;;;;;;;15.04;100.00;99554.69;5122697;27;19938;-77
2021/06/25 11:34:55;;;;;;;;;;;;;;;15.03;100.00;99543.88;5098888;28;20309;-78
2021/06/25 11:37:42;;;;;;;;;;;;;;;14.86;100.00;99534.69;5100884;28;19959;-78
2021/06/25 11:40:10;;;;;;;;;;;;;;;15.19;100.00;99530.56;5091116;28;19957;-77
2021/06/25 11:42:37;;;;;;;;;;;;;;;15.38;100.00;99535.31;5129700;28;19927;-79
2021/06/25 11:45:08;;;;;;;;;;;;;;;15.21;100.00;99518.88;5133025;27;19924;-78
2021/06/25 11:47:41;;;;;;;;;;;;;;;15.18;100.00;99512.13;5097766;28;19930;-78
2021/06/25 11:50:16;;;;;;;;;;;;;;;14.96;100.00;99513.94;5104398;28;19924;-78
2021/06/25 11:52:43;;;;;;;;;;;;;;;15.04;100.00;99512.50;5094604;28;19977;-78
2021/06/25 11:55:11;;;;;;;;;;;;;;;14.87;100.00;99502.53;5093347;28;19970;-78
2021/06/25 11:57:40;;;;;;;;;;;;;;;14.86;100.00;99489.66;5089595;28;19923;-78
2021/06/25 12:00:07;;;;;;;;;;;;;;;14.73;100.00;99486.00;5132306;27;19931;-78
2021/06/25 12:02:42;;;;;;;;;;;;;;;14.79;100.00;99487.06;5131752;27;19935;-78
2021/06/25 12:05:11;;;;;;;;;;;;;;;15.09;100.00;99486.63;5136860;27;19976;-78
2021/06/25 12:07:38;;;;;;;;;;;;;;;15.27;100.00;99492.56;5135975;27;20004;-78
2021/06/25 12:10:06;;;;;;;;;;;;;;;15.20;100.00;99487.13;5129520;27;19923;-78
2021/06/25 12:12:34;;;;;;;;;;;;;;;14.97;100.00;99470.47;5137535;27;20691;-78
2021/06/25 12:15:09;;;;;;;;;;;;;;;14.78;100.00;99477.03;5099281;28;20378;-77
2021/06/25 12:17:46;;;;;;;;;;;;;;;14.71;100.00;99477.22;5111372;28;19924;-78
2021/06/25 12:20:13;;;;;;;;;;;;;;;14.70;100.00;99492.50;5122783;27;19931;-78
2021/06/25 12:22:57;;;;;;;;;;;;;;;14.56;100.00;99492.88;5134368;27;20459;-78
2021/06/25 12:25:37;;;;;;;;;;;;;;;14.80;100.00;99499.88;5133624;27;20428;-78
2021/06/25 12:28:15;;;;;;;;;;;;;;;14.94;100.00;99507.94;5117569;27;19924;-78
2021/06/25 12:30:42;;;;;;;;;;;;;;;14.77;100.00;99506.38;5124239;27;19930;-77
2021/06/25 12:33:10;;;;;;;;;;;;;;;14.63;100.00;99497.53;5135013;27;20354;-77
2021/06/25 12:35:41;;;;;;;;;;;;;;;14.80;100.00;99501.91;5134393;27;19969;-77
2021/06/25 12:38:09;;;;;;;;;;;;;;;14.77;100.00;99503.56;5100911;27;20290;-77
2021/06/25 12:40:37;;;;;;;;;;;;;;;14.99;100.00;99504.59;5135732;27;19931;-77
2021/06/25 12:43:04;;;;;;;;;;;;;;;15.05;100.00;99502.84;5119329;27;19925;-76
2021/06/25 12:45:39;;;;;;;;;;;;;;;15.09;100.00;99509.16;5079264;28;19931;-77
2021/06/25 12:48:13;;;;;;;;;;;;;;;14.98;100.00;99505.06;5100042;28;19962;-75
2021/06/25 12:50:41;;;;;;;;;;;;;;;15.11;100.00;99512.31;5128448;27;19945;-75
2021/06/25 12:53:09;;;;;;;;;;;;;;;15.02;100.00;99509.34;5131926;27;20369;-76
2021/06/25 12:55:37;;;;;;;;;;;;;;;14.97;100.00;99501.44;5116704;27;19923;-75
2021/06/25 12:58:04;;;;;;;;;;;;;;;14.90;100.00;99493.19;5127010;27;19924;-75